Time;durP1;ratioP1;P1;durP2;ratioP2;P2;SDS_P1;SDS_P2;PMS_P1;PMS_P2;Temp;Humidity;BMP_temperature;BMP_pressure;BME280_temperature;BME280_humidity;BME280_pressure;Samples;Min_cycle;Max_cycle;Signal;HPM_P1;HPM_P2
2022/08/08 00:01:17;;;;;;;3.97;3.67;;;36.90;36.00;;;;;;5082192;28;20439;-70
2022/08/08 00:04:03;;;;;;;4.50;4.20;;;36.90;35.00;;;;;;5083099;28;20435;-69
2022/08/08 00:06:47;;;;;;;3.97;3.63;;;36.80;35.70;;;;;;5048673;28;20438;-69
2022/08/08 00:09:26;;;;;;;3.30;3.10;;;36.70;36.90;;;;;;5062947;28;20543;-69
2022/08/08 00:12:04;;;;;;;4.13;3.83;;;36.70;37.60;;;;;;5068007;28;20451;-69
2022/08/08 00:14:50;;;;;;;3.93;3.70;;;36.60;37.00;;;;;;5082372;28;20471;-69
2022/08/08 00:17:42;;;;;;;3.17;2.87;;;36.60;36.30;;;;;;5081835;28;20447;-69
2022/08/08 00:20:39;;;;;;;3.60;3.30;;;36.60;35.80;;;;;;5081183;28;20481;-69
2022/08/08 00:23:16;;;;;;;3.40;3.20;;;36.50;35.70;;;;;;5076744;28;20459;-69
2022/08/08 00:25:52;;;;;;;3.77;3.43;;;36.40;36.40;;;;;;5069221;28;20442;-69
2022/08/08 00:28:28;;;;;;;3.13;2.93;;;36.40;36.20;;;;;;5082534;28;20444;-69
2022/08/08 00:31:13;;;;;;;3.27;3.07;;;36.40;35.40;;;;;;5081814;28;20442;-69
2022/08/08 00:37:15;;;;;;;3.53;3.30;;;36.40;34.60;;;;;;5080976;28;20510;-69
2022/08/08 00:40:26;;;;;;;4.30;4.00;;;36.30;35.00;;;;;;5068127;28;20446;-69
2022/08/08 00:43:45;;;;;;;3.20;3.00;;;36.30;36.40;;;;;;5068737;28;20451;-70
2022/08/08 00:46:55;;;;;;;3.90;3.60;;;36.20;35.90;;;;;;5056140;28;20451;-69
2022/08/08 00:50:10;;;;;;;3.53;3.33;;;36.00;36.80;;;;;;5049420;28;20977;-70
2022/08/08 00:52:53;;;;;;;3.53;3.30;;;36.00;37.20;;;;;;4982892;28;20495;-70
2022/08/08 00:56:01;;;;;;;3.80;3.60;;;35.90;38.40;;;;;;4980998;28;20454;-69
2022/08/08 00:59:19;;;;;;;3.90;3.60;;;35.90;39.20;;;;;;4980913;28;20530;-70
2022/08/08 01:02:34;;;;;;;3.30;3.07;;;35.90;37.60;;;;;;4988596;28;20446;-69
2022/08/08 01:05:58;;;;;;;3.70;3.50;;;35.70;37.40;;;;;;4999715;28;20524;-68
2022/08/08 01:09:24;;;;;;;3.60;3.40;;;35.60;37.70;;;;;;4998463;28;20456;-69
2022/08/08 01:12:42;;;;;;;3.13;2.93;;;35.50;38.40;;;;;;4999980;28;20450;-69
2022/08/08 01:15:43;;;;;;;4.30;4.00;;;35.50;39.00;;;;;;5004080;28;20458;-69
2022/08/08 01:18:54;;;;;;;4.20;3.90;;;35.30;39.80;;;;;;4973949;28;20527;-69
2022/08/08 01:22:01;;;;;;;4.00;3.73;;;35.30;40.60;;;;;;4990433;28;20463;-70
2022/08/08 01:25:01;;;;;;;4.40;4.10;;;35.30;40.20;;;;;;4981326;28;20535;-69
2022/08/08 01:28:04;;;;;;;3.10;2.90;;;35.20;40.50;;;;;;5007761;28;20452;-70
2022/08/08 01:31:27;;;;;;;3.53;3.33;;;35.10;39.90;;;;;;5061909;28;20459;-71
2022/08/08 01:34:55;;;;;;;3.73;3.43;;;35.00;39.90;;;;;;5063813;28;20572;-69
2022/08/08 01:38:05;;;;;;;3.50;3.20;;;35.00;40.30;;;;;;5060431;28;20601;-70
2022/08/08 01:40:47;;;;;;;3.80;3.60;;;34.80;40.10;;;;;;5063262;28;20455;-68
2022/08/08 01:43:34;;;;;;;3.80;3.60;;;34.70;40.60;;;;;;5070994;28;20467;-70
2022/08/08 01:46:26;;;;;;;3.73;3.50;;;34.60;40.50;;;;;;5064913;28;20464;-67
2022/08/08 01:49:05;;;;;;;3.20;3.00;;;34.60;41.00;;;;;;5060666;28;20819;-67
2022/08/08 01:52:08;;;;;;;3.40;3.20;;;34.60;42.00;;;;;;5065117;28;20512;-70
2022/08/08 01:55:12;;;;;;;3.30;3.10;;;34.50;41.40;;;;;;5056761;28;20490;-70
2022/08/08 01:58:18;;;;;;;3.33;3.13;;;34.40;43.10;;;;;;5068322;28;20447;-69
2022/08/08 02:01:20;;;;;;;3.87;3.60;;;34.30;43.20;;;;;;5062189;28;20557;-69
2022/08/08 02:04:03;;;;;;;3.90;3.67;;;34.30;44.10;;;;;;5065083;28;20436;-65
2022/08/08 02:07:02;;;;;;;3.47;3.27;;;34.10;43.20;;;;;;5062524;28;20495;-68
2022/08/08 02:09:59;;;;;;;3.53;3.30;;;34.10;42.80;;;;;;5064223;28;20456;-71
2022/08/08 02:12:51;;;;;;;3.50;3.20;;;34.00;43.80;;;;;;5069327;28;20864;-71
2022/08/08 02:15:36;;;;;;;3.50;3.30;;;33.90;44.10;;;;;;5072258;28;20479;-71
2022/08/08 02:18:14;;;;;;;3.67;3.40;;;33.90;44.80;;;;;;5064360;28;20474;-72
2022/08/08 02:23:44;;;;;;;3.27;3.03;;;33.70;44.10;;;;;;5057279;28;20582;-71
2022/08/08 02:26:25;;;;;;;3.10;2.90;;;33.60;45.20;;;;;;5063093;28;20497;-70
2022/08/08 02:29:08;;;;;;;3.63;3.33;;;33.50;45.20;;;;;;5063219;28;20544;-70
2022/08/08 02:32:05;;;;;;;3.83;3.53;;;33.40;44.90;;;;;;5052374;28;20468;-70
2022/08/08 02:35:15;;;;;;;3.57;3.37;;;33.30;44.70;;;;;;5057078;28;20900;-70
2022/08/08 02:38:27;;;;;;;3.57;3.30;;;33.20;45.00;;;;;;5054960;28;20456;-70
2022/08/08 02:41:25;;;;;;;3.73;3.53;;;33.10;45.60;;;;;;5048486;28;20577;-70
2022/08/08 02:44:57;;;;;;;3.60;3.40;;;33.00;45.20;;;;;;5061818;28;20454;-70
2022/08/08 02:48:04;;;;;;;3.80;3.53;;;32.90;45.70;;;;;;5062610;28;20466;-70
2022/08/08 02:51:15;;;;;;;4.10;3.70;;;32.80;45.40;;;;;;5069597;28;20454;-69
2022/08/08 02:54:31;;;;;;;3.90;3.60;;;32.70;46.20;;;;;;5062465;28;20475;-68
2022/08/08 02:57:52;;;;;;;3.70;3.40;;;32.60;47.20;;;;;;5065232;28;20472;-68
2022/08/08 03:00:56;;;;;;;3.80;3.60;;;32.50;46.60;;;;;;5058053;28;20498;-68
2022/08/08 03:04:17;;;;;;;2.90;2.70;;;32.30;47.00;;;;;;5061722;28;20464;-68
2022/08/08 03:07:55;;;;;;;3.30;3.10;;;32.10;47.70;;;;;;5054026;28;20523;-66
2022/08/08 03:10:51;;;;;;;3.90;3.60;;;32.00;47.70;;;;;;5051862;28;20475;-67
2022/08/08 03:13:42;;;;;;;3.37;3.17;;;31.90;48.00;;;;;;5063280;28;20555;-67
2022/08/08 03:16:47;;;;;;;3.97;3.53;;;31.80;48.50;;;;;;5067416;28;20456;-68
2022/08/08 03:19:30;;;;;;;3.60;3.40;;;31.80;49.00;;;;;;5070072;28;20785;-67
2022/08/08 03:22:00;;;;;;;3.83;3.53;;;31.60;49.60;;;;;;5063792;28;20523;-67
2022/08/08 03:24:33;;;;;;;3.60;3.40;;;31.40;49.60;;;;;;5063491;28;20482;-67
2022/08/08 03:27:10;;;;;;;3.53;3.27;;;31.40;50.00;;;;;;5060829;28;20471;-66
2022/08/08 03:29:46;;;;;;;3.60;3.37;;;31.20;51.10;;;;;;5063161;28;20458;-67
2022/08/08 03:35:29;;;;;;;4.90;4.50;;;30.90;50.80;;;;;;5063294;28;20491;-68
2022/08/08 03:38:03;;;;;;;4.90;4.37;;;30.80;51.70;;;;;;5052813;28;20465;-67
2022/08/08 03:40:56;;;;;;;4.00;3.70;;;30.60;51.50;;;;;;5081200;28;20936;-68
2022/08/08 03:43:37;;;;;;;3.83;3.63;;;30.50;51.80;;;;;;5064778;28;20466;-70
2022/08/08 03:46:08;;;;;;;3.50;3.30;;;30.40;52.90;;;;;;5059959;28;20466;-70
2022/08/08 03:48:39;;;;;;;3.90;3.60;;;30.20;53.80;;;;;;5061472;28;20493;-67
2022/08/08 03:51:30;;;;;;;3.57;3.37;;;29.90;54.40;;;;;;5058602;28;20450;-66
2022/08/08 03:54:20;;;;;;;4.30;3.90;;;29.70;54.80;;;;;;5062345;28;20853;-66
2022/08/08 03:57:17;;;;;;;4.20;3.90;;;29.60;56.10;;;;;;5079269;28;20441;-67
2022/08/08 04:00:13;;;;;;;3.70;3.40;;;29.40;56.90;;;;;;5062634;28;20953;-66
2022/08/08 04:02:56;;;;;;;4.20;3.90;;;29.10;56.60;;;;;;5058642;28;20454;-68
2022/08/08 04:05:29;;;;;;;3.70;3.40;;;29.20;55.20;;;;;;5047818;28;20545;-66
2022/08/08 04:08:02;;;;;;;4.20;3.80;;;29.30;54.80;;;;;;5059550;28;20954;-66
2022/08/08 04:10:35;;;;;;;4.20;3.90;;;29.30;54.70;;;;;;5062822;28;20930;-67
2022/08/08 04:13:08;;;;;;;3.90;3.60;;;29.30;55.00;;;;;;5072770;28;20466;-67
2022/08/08 04:15:47;;;;;;;4.27;3.93;;;29.30;55.30;;;;;;5060312;28;20526;-68
2022/08/08 04:18:34;;;;;;;3.63;3.33;;;29.30;54.80;;;;;;5057529;28;20549;-67
2022/08/08 04:21:13;;;;;;;4.50;4.20;;;29.20;55.10;;;;;;5058938;28;20485;-63
2022/08/08 04:23:51;;;;;;;4.03;3.73;;;29.10;55.20;;;;;;5059886;28;20545;-63
2022/08/08 04:26:42;;;;;;;4.37;4.07;;;29.10;55.50;;;;;;5064527;28;20980;-65
2022/08/08 04:29:29;;;;;;;3.90;3.53;;;28.90;56.60;;;;;;5061693;28;20454;-63
2022/08/08 04:32:06;;;;;;;4.63;4.23;;;28.70;58.20;;;;;;5055331;28;20470;-62
2022/08/08 04:34:39;;;;;;;4.00;3.70;;;28.50;58.50;;;;;;5062958;28;20508;-63
2022/08/08 04:37:24;;;;;;;4.90;4.50;;;28.20;59.60;;;;;;5058252;28;20455;-62
2022/08/08 04:40:02;;;;;;;4.03;3.73;;;28.10;58.30;;;;;;5067861;28;20491;-62
2022/08/08 04:42:39;;;;;;;4.70;4.30;;;27.90;59.20;;;;;;5062219;28;20458;-63
2022/08/08 04:45:28;;;;;;;4.30;3.97;;;27.90;57.60;;;;;;5058578;28;20523;-63
2022/08/08 04:47:59;;;;;;;4.00;3.70;;;27.90;57.20;;;;;;5060365;28;20448;-63
2022/08/08 04:50:29;;;;;;;4.17;3.87;;;28.00;56.60;;;;;;5068675;28;20565;-66
2022/08/08 04:53:07;;;;;;;4.20;3.90;;;28.00;56.20;;;;;;5066066;28;20574;-66
2022/08/08 04:55:58;;;;;;;4.10;3.80;;;28.00;55.90;;;;;;5053592;28;20480;-67
2022/08/08 04:58:29;;;;;;;4.97;4.50;;;28.00;56.30;;;;;;5065758;28;20481;-67
2022/08/08 05:01:03;;;;;;;3.97;3.67;;;28.00;55.50;;;;;;5061306;28;20513;-67
2022/08/08 05:03:39;;;;;;;4.17;3.77;;;27.90;56.10;;;;;;5062630;28;20460;-67
2022/08/08 05:06:30;;;;;;;4.60;4.20;;;27.80;57.10;;;;;;5057878;28;20527;-67
2022/08/08 05:09:05;;;;;;;4.27;3.97;;;27.60;56.80;;;;;;5066063;28;20537;-67
2022/08/08 05:11:36;;;;;;;3.90;3.60;;;27.50;57.20;;;;;;5064825;28;20469;-66
2022/08/08 05:14:10;;;;;;;3.93;3.63;;;27.40;58.20;;;;;;5065119;28;20464;-66
2022/08/08 05:16:45;;;;;;;4.10;3.80;;;27.30;57.30;;;;;;5065631;28;20876;-67
2022/08/08 05:19:29;;;;;;;4.27;3.97;;;27.20;56.20;;;;;;5070331;28;20474;-66
2022/08/08 05:22:20;;;;;;;4.17;3.87;;;27.10;57.20;;;;;;5053023;28;20443;-67
2022/08/08 05:24:51;;;;;;;4.13;3.77;;;27.00;56.00;;;;;;5065259;28;20471;-67
2022/08/08 05:27:22;;;;;;;3.70;3.40;;;26.90;56.50;;;;;;5064431;28;20464;-67
2022/08/08 05:29:53;;;;;;;4.40;4.07;;;26.90;55.50;;;;;;5055809;28;20527;-66
2022/08/08 05:32:27;;;;;;;4.00;3.63;;;26.80;56.00;;;;;;5063934;28;20492;-67
2022/08/08 05:35:06;;;;;;;3.47;3.17;;;26.80;56.00;;;;;;5057165;28;20494;-66
2022/08/08 05:37:40;;;;;;;3.80;3.50;;;26.80;54.80;;;;;;5059760;28;20467;-68
2022/08/08 05:40:23;;;;;;;3.43;3.13;;;26.70;54.60;;;;;;5069562;28;20896;-65
2022/08/08 05:43:03;;;;;;;3.33;3.10;;;26.80;54.00;;;;;;5058005;28;20929;-65
2022/08/08 05:45:57;;;;;;;3.57;3.37;;;26.90;54.00;;;;;;5064371;28;20440;-65
2022/08/08 05:48:35;;;;;;;3.70;3.40;;;27.00;54.10;;;;;;5065009;28;20985;-66
2022/08/08 05:51:07;;;;;;;3.87;3.57;;;27.10;53.90;;;;;;5083575;28;20447;-65
2022/08/08 05:53:46;;;;;;;3.30;3.10;;;27.10;53.60;;;;;;5082248;28;20452;-65
2022/08/08 05:56:40;;;;;;;3.57;3.37;;;27.00;54.20;;;;;;5081081;28;20494;-65
2022/08/08 05:59:21;;;;;;;3.60;3.30;;;27.00;53.80;;;;;;5071643;28;20956;-65
2022/08/08 06:05:09;;;;;;;3.57;3.27;;;27.00;53.80;;;;;;5067214;28;20481;-66
2022/08/08 06:08:01;;;;;;;3.67;3.37;;;26.90;54.10;;;;;;5060263;28;20473;-66
2022/08/08 06:10:53;;;;;;;4.03;3.73;;;26.70;55.10;;;;;;5067253;28;21011;-66
2022/08/08 06:13:25;;;;;;;3.97;3.60;;;26.60;54.70;;;;;;5062930;28;20475;-65
2022/08/08 06:16:06;;;;;;;3.80;3.50;;;26.50;55.90;;;;;;5063270;28;20499;-66
2022/08/08 06:18:38;;;;;;;3.43;3.23;;;26.30;57.90;;;;;;5063569;28;20485;-65
2022/08/08 06:21:11;;;;;;;3.77;3.50;;;26.20;57.00;;;;;;5063113;28;20467;-65
2022/08/08 06:24:04;;;;;;;3.50;3.20;;;26.10;56.60;;;;;;5062997;28;20540;-65
2022/08/08 06:26:58;;;;;;;3.90;3.20;;;26.00;56.90;;;;;;5070038;28;20595;-65
2022/08/08 06:29:35;;;;;;;3.63;3.33;;;26.00;57.20;;;;;;5066360;28;20465;-65
2022/08/08 06:32:30;;;;;;;3.77;3.47;;;25.90;57.20;;;;;;5063555;28;20456;-66
2022/08/08 06:35:08;;;;;;;3.43;3.13;;;25.80;58.20;;;;;;5063495;28;20465;-65
2022/08/08 06:38:06;;;;;;;3.73;3.33;;;25.70;57.80;;;;;;5061328;28;20459;-65
2022/08/08 06:40:45;;;;;;;3.47;3.27;;;25.60;60.00;;;;;;5062815;28;20494;-65
2022/08/08 06:43:23;;;;;;;3.77;3.47;;;25.60;58.40;;;;;;5069526;28;20466;-65
2022/08/08 06:46:04;;;;;;;3.80;3.47;;;25.50;59.20;;;;;;5061902;28;21003;-65
2022/08/08 06:48:41;;;;;;;3.90;3.60;;;25.40;61.80;;;;;;5060613;28;20488;-65
2022/08/08 06:51:16;;;;;;;4.30;3.90;;;25.40;63.70;;;;;;5063605;28;20546;-65
2022/08/08 06:53:49;;;;;;;3.33;3.10;;;25.20;64.00;;;;;;5062275;28;20473;-65
2022/08/08 06:56:25;;;;;;;3.90;3.60;;;25.10;62.40;;;;;;5061674;28;20537;-65
2022/08/08 06:59:00;;;;;;;3.60;3.30;;;25.00;61.40;;;;;;5072387;28;20577;-65
2022/08/08 07:01:50;;;;;;;4.00;3.70;;;25.00;60.20;;;;;;5061243;28;20527;-65
2022/08/08 07:04:53;;;;;;;4.00;3.70;;;25.00;59.90;;;;;;5059961;28;21292;-65
2022/08/08 07:07:46;;;;;;;4.20;3.90;;;25.00;62.70;;;;;;5063477;28;20582;-65
2022/08/08 07:10:20;;;;;;;4.50;4.10;;;24.90;64.90;;;;;;5061873;28;20548;-65
2022/08/08 07:12:55;;;;;;;3.47;3.27;;;24.70;66.60;;;;;;5065360;28;20496;-65
2022/08/08 07:15:42;;;;;;;3.80;3.50;;;24.70;69.30;;;;;;5062010;28;20495;-66
2022/08/08 07:18:39;;;;;;;3.97;3.70;;;24.60;70.90;;;;;;5058544;28;20496;-65
2022/08/08 07:21:13;;;;;;;3.27;3.07;;;24.50;70.00;;;;;;5057137;28;20499;-65
2022/08/08 07:23:55;;;;;;;5.83;3.80;;;24.40;68.10;;;;;;5076768;28;20526;-66
2022/08/08 07:26:38;;;;;;;4.00;3.70;;;24.30;68.20;;;;;;5053999;28;20532;-66
2022/08/08 07:29:09;;;;;;;3.97;3.67;;;24.10;70.10;;;;;;5054888;28;20494;-65
2022/08/08 07:32:00;;;;;;;4.00;3.63;;;24.00;71.10;;;;;;5081322;28;20520;-65
2022/08/08 07:34:31;;;;;;;4.10;3.37;;;24.00;71.70;;;;;;5070385;28;20467;-65
2022/08/08 07:37:04;;;;;;;5.40;3.57;;;24.00;71.50;;;;;;5061873;28;20504;-65
2022/08/08 07:39:43;;;;;;;4.43;4.03;;;23.90;71.90;;;;;;5061085;28;20499;-65
2022/08/08 07:42:31;;;;;;;4.30;4.00;;;23.80;70.90;;;;;;5060364;28;20510;-65
2022/08/08 07:45:03;;;;;;;3.60;3.30;;;23.80;69.90;;;;;;5061681;28;20475;-65
2022/08/08 07:47:34;;;;;;;3.30;3.10;;;23.90;70.00;;;;;;5065911;28;20460;-65
2022/08/08 07:50:09;;;;;;;3.77;3.47;;;23.80;73.70;;;;;;5060818;28;20464;-65
2022/08/08 07:52:42;;;;;;;3.90;3.60;;;23.70;73.30;;;;;;5060521;28;20453;-65
2022/08/08 07:55:22;;;;;;;4.27;3.87;;;23.60;74.50;;;;;;5056694;28;20518;-65
2022/08/08 07:58:10;;;;;;;3.77;3.47;;;23.60;76.80;;;;;;5060981;28;20938;-65
2022/08/08 08:00:47;;;;;;;3.67;3.37;;;23.50;77.60;;;;;;5061737;28;20484;-64
2022/08/08 08:03:29;;;;;;;4.67;4.17;;;23.50;75.60;;;;;;5071376;28;20506;-65
2022/08/08 08:06:14;;;;;;;3.57;3.33;;;23.40;74.50;;;;;;5060498;28;20460;-65
2022/08/08 08:08:52;;;;;;;4.07;3.70;;;23.40;77.20;;;;;;5060202;28;20464;-65
2022/08/08 08:11:24;;;;;;;4.23;3.83;;;23.30;79.10;;;;;;5061240;28;20457;-65
2022/08/08 08:14:19;;;;;;;3.87;3.57;;;23.10;78.90;;;;;;5049735;28;20448;-65
2022/08/08 08:16:50;;;;;;;4.00;3.60;;;23.10;81.10;;;;;;5062064;28;20499;-65
2022/08/08 08:19:22;;;;;;;3.73;3.43;;;23.00;82.30;;;;;;5063727;28;20464;-65
2022/08/08 08:22:00;;;;;;;3.27;3.07;;;23.00;82.00;;;;;;5046448;28;20511;-65
2022/08/08 08:24:36;;;;;;;3.93;3.63;;;22.90;80.30;;;;;;5064599;28;20464;-65
2022/08/08 08:27:11;;;;;;;4.23;3.83;;;22.80;81.50;;;;;;5060045;28;20460;-65
2022/08/08 08:29:44;;;;;;;4.27;3.87;;;22.80;84.10;;;;;;5060070;28;20456;-65
2022/08/08 08:32:22;;;;;;;3.67;3.37;;;22.70;85.10;;;;;;5060432;28;20468;-65
2022/08/08 08:35:06;;;;;;;3.60;3.30;;;22.70;84.00;;;;;;5060854;28;20947;-65
2022/08/08 08:37:38;;;;;;;3.83;3.53;;;22.50;83.20;;;;;;5061697;28;20488;-65
2022/08/08 08:40:30;;;;;;;4.70;4.30;;;22.60;85.80;;;;;;5060946;28;20483;-65
2022/08/08 08:43:04;;;;;;;3.50;3.30;;;22.50;88.00;;;;;;5059843;28;20460;-66
2022/08/08 08:45:49;;;;;;;3.70;3.40;;;22.50;88.40;;;;;;5062165;28;20505;-66
2022/08/08 08:48:26;;;;;;;4.10;3.80;;;22.40;88.20;;;;;;5049925;28;20456;-65
2022/08/08 08:51:01;;;;;;;3.77;3.47;;;22.30;89.60;;;;;;5058310;28;20585;-66
2022/08/08 08:53:37;;;;;;;4.20;3.80;;;22.20;89.10;;;;;;5062975;28;20459;-65
2022/08/08 08:56:29;;;;;;;4.70;3.40;;;22.20;89.00;;;;;;5060852;28;20495;-66
2022/08/08 08:59:01;;;;;;;3.53;3.33;;;22.20;90.40;;;;;;5059623;28;20515;-66
2022/08/08 09:01:38;;;;;;;4.00;3.70;;;22.20;90.00;;;;;;5063383;28;20487;-66
2022/08/08 09:04:21;;;;;;;3.57;3.30;;;22.10;88.50;;;;;;5059567;28;20460;-65
2022/08/08 09:07:07;;;;;;;3.53;3.23;;;22.10;90.20;;;;;;5064164;28;20557;-65
2022/08/08 09:09:43;;;;;;;3.10;2.80;;;22.10;90.30;;;;;;5061147;28;20460;-65
2022/08/08 09:12:25;;;;;;;3.33;3.03;;;22.10;89.70;;;;;;5060454;28;21581;-65
2022/08/08 09:14:57;;;;;;;3.60;3.30;;;22.00;90.00;;;;;;5057502;28;20539;-65
2022/08/08 09:17:32;;;;;;;3.50;3.20;;;22.00;90.30;;;;;;5056188;28;20547;-65
2022/08/08 09:20:12;;;;;;;3.27;2.97;;;22.00;91.10;;;;;;5060841;28;20472;-65
2022/08/08 09:23:03;;;;;;;3.90;3.60;;;22.00;90.90;;;;;;5061240;28;20538;-65
2022/08/08 09:25:44;;;;;;;3.77;3.43;;;21.80;90.80;;;;;;5061091;28;20468;-66
2022/08/08 09:28:30;;;;;;;3.30;3.00;;;21.90;90.80;;;;;;5053913;28;20484;-65
2022/08/08 09:31:14;;;;;;;3.20;2.90;;;21.90;91.60;;;;;;5060158;28;20897;-65
2022/08/08 09:33:51;;;;;;;3.43;3.03;;;21.80;92.70;;;;;;5057687;28;20456;-65
2022/08/08 09:36:47;;;;;;;3.70;3.30;;;21.80;92.50;;;;;;5059355;28;20490;-65
2022/08/08 09:39:48;;;;;;;3.30;3.03;;;21.70;92.00;;;;;;5065951;28;20543;-65
2022/08/08 09:42:29;;;;;;;3.20;2.90;;;21.70;93.00;;;;;;5063711;28;20479;-65
2022/08/08 09:45:06;;;;;;;2.90;2.70;;;21.60;93.40;;;;;;5064336;28;20474;-65
2022/08/08 09:47:50;;;;;;;3.80;3.50;;;21.50;93.60;;;;;;5068927;28;20459;-66
2022/08/08 09:50:42;;;;;;;3.10;2.80;;;21.50;94.70;;;;;;5063066;28;20452;-66
2022/08/08 09:53:21;;;;;;;3.50;3.20;;;21.40;95.60;;;;;;5069394;28;20450;-66
2022/08/08 09:56:13;;;;;;;4.23;3.83;;;21.40;95.40;;;;;;5068072;28;20510;-66
2022/08/08 09:58:58;;;;;;;3.80;3.50;;;21.30;95.40;;;;;;5063618;28;20593;-66
2022/08/08 10:01:39;;;;;;;4.00;3.20;;;21.30;96.00;;;;;;5053971;28;20456;-65
2022/08/08 10:04:31;;;;;;;4.43;3.43;;;21.30;97.20;;;;;;5070715;28;20456;-65
2022/08/08 10:07:17;;;;;;;3.50;3.20;;;21.20;98.20;;;;;;5071110;28;20459;-65
2022/08/08 10:09:53;;;;;;;2.87;2.67;;;21.10;98.20;;;;;;5073220;28;20460;-65
2022/08/08 10:12:34;;;;;;;5.90;3.17;;;21.00;97.90;;;;;;5069532;28;20467;-65
2022/08/08 10:15:23;;;;;;;3.60;3.30;;;21.00;99.20;;;;;;5051809;28;20566;-65
2022/08/08 10:17:57;;;;;;;3.20;2.90;;;21.00;99.70;;;;;;5063041;28;20498;-66
2022/08/08 10:20:45;;;;;;;5.63;2.80;;;21.00;99.90;;;;;;5060845;28;20464;-66
2022/08/08 10:23:42;;;;;;;2.67;2.47;;;20.90;99.90;;;;;;5068246;28;20462;-65
2022/08/08 10:26:27;;;;;;;3.73;3.43;;;20.90;99.90;;;;;;5073823;28;20456;-65
2022/08/08 10:29:04;;;;;;;3.47;3.17;;;20.80;99.90;;;;;;5054487;28;20466;-65
2022/08/08 10:34:25;;;;;;;3.80;3.50;;;20.70;99.90;;;;;;5063053;28;20490;-65
2022/08/08 10:36:59;;;;;;;3.70;3.40;;;20.60;99.90;;;;;;5060897;28;20460;-65
2022/08/08 10:39:45;;;;;;;3.67;3.37;;;20.60;99.90;;;;;;5072704;28;20505;-65
2022/08/08 10:42:25;;;;;;;3.20;3.00;;;20.50;99.90;;;;;;5063099;28;20482;-65
2022/08/08 10:45:02;;;;;;;2.93;2.67;;;20.50;99.90;;;;;;5052710;28;20471;-65
2022/08/08 10:47:38;;;;;;;2.90;2.70;;;20.50;99.90;;;;;;5062588;28;20491;-66
2022/08/08 10:50:17;;;;;;;4.07;3.77;;;20.40;99.90;;;;;;5061475;28;20464;-65
2022/08/08 10:52:52;;;;;;;3.00;2.80;;;20.40;99.90;;;;;;5061975;28;20453;-65
2022/08/08 10:55:25;;;;;;;3.47;3.23;;;20.40;99.90;;;;;;5062722;28;20472;-66
2022/08/08 10:58:11;;;;;;;3.77;3.47;;;20.30;99.90;;;;;;5067195;28;20496;-65
2022/08/08 11:00:46;;;;;;;3.47;3.20;;;20.30;99.90;;;;;;5063873;28;20431;-65
2022/08/08 11:03:42;;;;;;;3.67;2.87;;;20.30;99.90;;;;;;5062649;28;20468;-66
2022/08/08 11:06:32;;;;;;;3.40;3.10;;;20.20;99.90;;;;;;5070113;28;20534;-65
2022/08/08 11:09:05;;;;;;;4.37;3.57;;;20.10;99.90;;;;;;5063242;28;20482;-65
2022/08/08 11:11:53;;;;;;;2.70;2.50;;;20.10;99.90;;;;;;5063902;28;21001;-65
2022/08/08 11:14:53;;;;;;;3.50;3.30;;;20.00;99.90;;;;;;5050656;28;20460;-65
2022/08/08 11:17:27;;;;;;;3.30;3.00;;;20.00;99.90;;;;;;5061624;28;20501;-65
2022/08/08 11:20:19;;;;;;;3.33;3.00;;;20.00;99.90;;;;;;5059810;28;20562;-65
2022/08/08 11:22:58;;;;;;;4.27;3.90;;;20.00;99.90;;;;;;5061700;28;20547;-65
2022/08/08 11:25:30;;;;;;;3.23;2.93;;;19.80;99.90;;;;;;5054154;28;20466;-65
2022/08/08 11:28:26;;;;;;;3.53;3.23;;;19.90;99.90;;;;;;5059810;28;20458;-65
2022/08/08 11:31:02;;;;;;;3.80;3.50;;;19.80;99.90;;;;;;5057287;28;20447;-65
2022/08/08 11:33:35;;;;;;;3.83;3.53;;;19.80;99.90;;;;;;5062131;28;20505;-65
2022/08/08 11:36:26;;;;;;;3.53;3.23;;;19.80;99.90;;;;;;5064089;28;20452;-65
2022/08/08 11:38:58;;;;;;;3.70;3.37;;;19.70;99.90;;;;;;5078944;28;21169;-65
2022/08/08 11:41:34;;;;;;;3.37;3.17;;;19.70;99.90;;;;;;5062327;28;20499;-65
2022/08/08 11:44:06;;;;;;;3.27;3.07;;;19.60;99.90;;;;;;5059336;28;20423;-65
2022/08/08 11:46:37;;;;;;;3.50;3.20;;;19.50;99.90;;;;;;5063983;28;20459;-65
2022/08/08 11:49:11;;;;;;;3.60;3.30;;;19.50;99.90;;;;;;5058356;28;20439;-65
2022/08/08 11:51:44;;;;;;;3.77;3.37;;;19.40;99.90;;;;;;5059304;28;20484;-65
2022/08/08 11:54:32;;;;;;;4.03;3.63;;;19.40;99.90;;;;;;5062530;28;20460;-65
2022/08/08 11:57:19;;;;;;;3.47;3.17;;;19.50;99.90;;;;;;5061260;28;20460;-65
2022/08/08 11:59:59;;;;;;;3.43;3.13;;;19.40;99.90;;;;;;5055696;28;20826;-65
2022/08/08 12:02:48;;;;;;;3.77;3.47;;;19.40;99.90;;;;;;5063444;28;20561;-66
2022/08/08 12:05:31;;;;;;;4.43;4.03;;;19.30;99.90;;;;;;5058749;28;20541;-65
2022/08/08 12:08:02;;;;;;;3.40;3.20;;;19.20;99.90;;;;;;5061576;28;20464;-66
2022/08/08 12:10:34;;;;;;;3.80;3.50;;;19.20;99.90;;;;;;5062145;28;20584;-65
2022/08/08 12:13:07;;;;;;;3.23;2.97;;;19.20;99.90;;;;;;5049137;28;20526;-65
2022/08/08 12:15:47;;;;;;;3.80;3.50;;;19.20;99.90;;;;;;5059747;28;20525;-65
2022/08/08 12:18:20;;;;;;;3.17;2.97;;;19.10;99.90;;;;;;5061502;28;20497;-65
2022/08/08 12:20:55;;;;;;;3.10;2.90;;;19.10;99.90;;;;;;5053695;28;20520;-65
2022/08/08 12:23:30;;;;;;;3.70;3.40;;;19.00;99.90;;;;;;5061037;28;20467;-66
2022/08/08 12:26:23;;;;;;;3.70;3.40;;;18.90;99.90;;;;;;5057678;28;20447;-66
2022/08/08 12:29:23;;;;;;;3.90;3.60;;;19.00;99.90;;;;;;5060824;28;20439;-66
2022/08/08 12:32:13;;;;;;;3.37;3.10;;;18.90;99.90;;;;;;5060787;28;20473;-65
2022/08/08 12:35:00;;;;;;;4.47;3.63;;;18.90;99.90;;;;;;5076100;28;22570;-66
2022/08/08 12:37:48;;;;;;;3.50;3.20;;;18.80;99.90;;;;;;5053203;28;20859;-66
2022/08/08 12:40:45;;;;;;;4.10;3.37;;;18.80;99.90;;;;;;5056302;28;20463;-65
2022/08/08 12:43:30;;;;;;;3.50;3.20;;;18.70;99.90;;;;;;5053208;28;20541;-65
2022/08/08 12:46:22;;;;;;;3.37;2.90;;;18.70;99.90;;;;;;5060992;28;20460;-65
2022/08/08 12:48:58;;;;;;;4.17;3.77;;;18.70;99.90;;;;;;5062908;28;20562;-65
2022/08/08 12:51:49;;;;;;;4.87;3.47;;;18.70;99.90;;;;;;5063625;28;20846;-65
2022/08/08 12:54:31;;;;;;;3.93;3.63;;;18.70;99.90;;;;;;5071842;28;20426;-64
2022/08/08 12:57:15;;;;;;;4.20;3.90;;;18.60;99.90;;;;;;5053228;28;20430;-65
2022/08/08 12:59:51;;;;;;;3.27;3.07;;;18.60;99.90;;;;;;5058341;28;20450;-65
2022/08/08 13:02:35;;;;;;;3.90;3.50;;;18.60;99.90;;;;;;5067324;28;20455;-65
2022/08/08 13:05:23;;;;;;;3.27;2.97;;;18.50;99.90;;;;;;5060857;28;21064;-65
2022/08/08 13:08:19;;;;;;;3.97;3.67;;;18.50;99.90;;;;;;5056756;28;20486;-65
2022/08/08 13:10:54;;;;;;;3.10;2.90;;;18.50;99.90;;;;;;5058201;28;20915;-64
2022/08/08 13:13:29;;;;;;;3.80;3.50;;;18.50;99.90;;;;;;5063679;28;20467;-64
2022/08/08 13:16:19;;;;;;;3.70;3.07;;;18.50;99.90;;;;;;5062029;28;20441;-65
2022/08/08 13:18:57;;;;;;;3.13;2.87;;;18.50;99.90;;;;;;5064448;28;20464;-65
2022/08/08 13:21:45;;;;;;;3.33;3.03;;;18.50;99.90;;;;;;5063520;28;20435;-64
2022/08/08 13:24:38;;;;;;;3.17;2.97;;;18.50;99.90;;;;;;5065354;28;20468;-65
2022/08/08 13:27:19;;;;;;;3.27;2.97;;;18.50;99.90;;;;;;5052285;28;20526;-65
2022/08/08 13:29:52;;;;;;;4.23;3.30;;;18.50;99.90;;;;;;5069580;28;20536;-64
2022/08/08 13:32:25;;;;;;;3.97;3.70;;;18.50;99.90;;;;;;5061966;28;20431;-64
2022/08/08 13:34:58;;;;;;;4.27;3.33;;;18.60;99.90;;;;;;5065316;28;20451;-64
2022/08/08 13:37:31;;;;;;;4.10;3.70;;;18.60;99.90;;;;;;5060198;28;20475;-64
2022/08/08 13:40:21;;;;;;;4.20;3.80;;;18.60;99.90;;;;;;5066329;28;20566;-64
2022/08/08 13:42:57;;;;;;;3.20;2.90;;;18.70;99.90;;;;;;5073810;28;20421;-65
2022/08/08 13:45:27;;;;;;;2.97;2.77;;;18.60;99.90;;;;;;5085204;28;20459;-66
2022/08/08 13:48:00;;;;;;;2.90;2.70;;;18.60;99.90;;;;;;5084885;28;20479;-65
2022/08/08 13:50:34;;;;;;;3.37;3.10;;;18.60;99.90;;;;;;5072520;28;20525;-65
2022/08/08 13:53:31;;;;;;;3.30;3.10;;;18.70;99.90;;;;;;5079528;28;20440;-65
2022/08/08 13:56:07;;;;;;;3.10;2.80;;;18.70;99.90;;;;;;5060214;28;20496;-65
2022/08/08 13:58:50;;;;;;;2.60;2.33;;;18.70;99.90;;;;;;5065493;28;21026;-66
2022/08/08 14:01:30;;;;;;;2.83;2.63;;;18.70;99.90;;;;;;5067576;28;20459;-65
2022/08/08 14:04:22;;;;;;;3.23;2.93;;;18.70;99.90;;;;;;5063876;28;20444;-65
2022/08/08 14:07:00;;;;;;;4.47;2.93;;;18.80;99.90;;;;;;5062978;28;20527;-65
2022/08/08 14:09:35;;;;;;;2.70;2.50;;;18.90;99.90;;;;;;5064270;28;20511;-65
2022/08/08 14:12:27;;;;;;;3.13;2.67;;;19.00;99.90;;;;;;5059968;28;20448;-65
2022/08/08 14:14:59;;;;;;;2.90;2.70;;;19.00;99.90;;;;;;5063640;28;20502;-65
2022/08/08 14:17:32;;;;;;;3.43;3.13;;;19.00;99.90;;;;;;5064101;28;20515;-65
2022/08/08 14:20:32;;;;;;;3.30;2.97;;;19.10;99.90;;;;;;5063859;28;20461;-65
2022/08/08 14:23:24;;;;;;;3.60;2.60;;;19.10;99.90;;;;;;5044741;28;20890;-66
2022/08/08 14:26:27;;;;;;;2.70;2.50;;;19.20;99.90;;;;;;5056360;28;20439;-65
2022/08/08 14:29:01;;;;;;;2.97;2.77;;;19.20;99.90;;;;;;5063873;28;20471;-65
2022/08/08 14:31:53;;;;;;;2.83;2.63;;;19.20;99.90;;;;;;5061080;28;20486;-65
2022/08/08 14:34:44;;;;;;;2.63;2.43;;;19.40;99.90;;;;;;5069848;28;20434;-65